sensor_id;sensor_type;location;lat;lon;timestamp;pressure;altitude;pressure_sealevel;temperature;humidity
18918;BME280;9591;52.742;13.650;2023-04-16T00:02:27;100982.31;;;13.42;100.00
18918;BME280;9591;52.742;13.650;2023-04-16T00:05:14;100983.06;;;13.45;100.00
18918;BME280;9591;52.742;13.650;2023-04-16T00:08:02;100981.19;;;13.69;100.00
18918;BME280;9591;52.742;13.650;2023-04-16T00:10:49;100984.16;;;13.62;100.00
18918;BME280;9591;52.742;13.650;2023-04-16T00:13:36;100983.00;;;13.47;100.00
18918;BME280;9591;52.742;13.650;2023-04-16T00:16:22;100990.06;;;13.48;100.00
18918;BME280;9591;52.742;13.650;2023-04-16T00:19:09;100990.84;;;13.50;100.00
18918;BME280;9591;52.742;13.650;2023-04-16T00:21:56;100991.34;;;13.38;100.00
18918;BME280;9591;52.742;13.650;2023-04-16T00:24:44;100987.75;;;13.39;100.00
18918;BME280;9591;52.742;13.650;2023-04-16T00:27:31;100989.31;;;13.44;100.00
18918;BME280;9591;52.742;13.650;2023-04-16T00:30:18;100997.41;;;13.41;100.00
18918;BME280;9591;52.742;13.650;2023-04-16T00:33:05;100993.38;;;13.31;100.00
18918;BME280;9591;52.742;13.650;2023-04-16T00:35:53;100985.97;;;13.39;100.00
18918;BME280;9591;52.742;13.650;2023-04-16T00:38:40;100989.53;;;13.38;100.00
18918;BME280;9591;52.742;13.650;2023-04-16T00:41:28;100986.03;;;13.38;100.00
18918;BME280;9591;52.742;13.650;2023-04-16T00:44:15;100990.06;;;13.48;100.00
18918;BME280;9591;52.742;13.650;2023-04-16T00:47:02;100994.88;;;13.38;100.00
18918;BME280;9591;52.742;13.650;2023-04-16T00:49:50;100932.94;;;13.11;100.00
18918;BME280;9591;52.742;13.650;2023-04-16T00:52:41;100987.13;;;13.32;100.00
18918;BME280;9591;52.742;13.650;2023-04-16T00:55:28;100989.44;;;13.41;100.00
18918;BME280;9591;52.742;13.650;2023-04-16T00:58:17;100993.88;;;13.41;100.00
18918;BME280;9591;52.742;13.650;2023-04-16T01:01:04;100991.47;;;13.35;100.00
18918;BME280;9591;52.742;13.650;2023-04-16T01:03:50;100989.84;;;13.31;100.00
18918;BME280;9591;52.742;13.650;2023-04-16T01:06:37;100991.91;;;13.46;100.00
18918;BME280;9591;52.742;13.650;2023-04-16T01:09:24;101000.06;;;13.41;100.00
18918;BME280;9591;52.742;13.650;2023-04-16T01:12:11;101006.81;;;13.50;100.00
18918;BME280;9591;52.742;13.650;2023-04-16T01:14:59;101003.38;;;13.25;100.00
18918;BME280;9591;52.742;13.650;2023-04-16T01:17:46;101000.13;;;13.40;100.00
18918;BME280;9591;52.742;13.650;2023-04-16T01:20:35;101004.31;;;13.24;100.00
18918;BME280;9591;52.742;13.650;2023-04-16T01:23:22;101001.28;;;13.33;100.00
18918;BME280;9591;52.742;13.650;2023-04-16T01:26:08;101007.72;;;13.27;100.00
18918;BME280;9591;52.742;13.650;2023-04-16T01:28:55;101020.44;;;13.19;100.00
18918;BME280;9591;52.742;13.650;2023-04-16T01:31:42;101017.00;;;13.16;100.00
18918;BME280;9591;52.742;13.650;2023-04-16T01:34:38;101013.09;;;13.26;100.00
18918;BME280;9591;52.742;13.650;2023-04-16T01:37:29;101017.44;;;13.28;100.00
18918;BME280;9591;52.742;13.650;2023-04-16T01:40:16;101015.53;;;13.32;100.00
18918;BME280;9591;52.742;13.650;2023-04-16T01:43:03;101018.34;;;13.27;100.00
18918;BME280;9591;52.742;13.650;2023-04-16T01:45:51;101021.06;;;13.26;100.00
18918;BME280;9591;52.742;13.650;2023-04-16T01:48:38;101019.16;;;13.29;100.00
18918;BME280;9591;52.742;13.650;2023-04-16T01:51:24;101022.25;;;13.19;100.00
18918;BME280;9591;52.742;13.650;2023-04-16T01:54:13;101016.69;;;13.25;100.00
18918;BME280;9591;52.742;13.650;2023-04-16T01:56:59;101029.28;;;13.20;100.00
18918;BME280;9591;52.742;13.650;2023-04-16T01:59:47;101026.84;;;13.13;100.00
18918;BME280;9591;52.742;13.650;2023-04-16T02:02:34;101028.81;;;13.08;100.00
18918;BME280;9591;52.742;13.650;2023-04-16T02:05:22;101028.81;;;13.08;100.00
18918;BME280;9591;52.742;13.650;2023-04-16T02:08:08;101028.09;;;13.03;100.00
18918;BME280;9591;52.742;13.650;2023-04-16T02:10:58;101036.59;;;13.13;100.00
18918;BME280;9591;52.742;13.650;2023-04-16T02:13:45;101037.91;;;13.26;100.00
18918;BME280;9591;52.742;13.650;2023-04-16T02:16:33;101035.69;;;13.14;100.00
18918;BME280;9591;52.742;13.650;2023-04-16T02:19:28;101034.06;;;13.10;100.00
18918;BME280;9591;52.742;13.650;2023-04-16T02:22:15;101038.06;;;13.22;100.00
18918;BME280;9591;52.742;13.650;2023-04-16T02:25:03;101039.31;;;13.11;100.00
18918;BME280;9591;52.742;13.650;2023-04-16T02:27:51;101034.16;;;13.07;100.00
18918;BME280;9591;52.742;13.650;2023-04-16T02:30:47;101043.19;;;12.79;100.00
18918;BME280;9591;52.742;13.650;2023-04-16T02:33:36;101042.88;;;12.89;100.00
18918;BME280;9591;52.742;13.650;2023-04-16T02:36:23;101047.31;;;12.88;100.00
18918;BME280;9591;52.742;13.650;2023-04-16T02:39:13;101050.09;;;12.85;100.00
18918;BME280;9591;52.742;13.650;2023-04-16T02:41:59;101048.13;;;12.90;100.00
18918;BME280;9591;52.742;13.650;2023-04-16T02:44:48;101047.06;;;12.71;100.00
18918;BME280;9591;52.742;13.650;2023-04-16T02:47:35;101045.16;;;12.74;100.00
18918;BME280;9591;52.742;13.650;2023-04-16T02:50:22;101051.66;;;12.66;100.00
18918;BME280;9591;52.742;13.650;2023-04-16T02:53:08;101060.41;;;12.69;100.00
18918;BME280;9591;52.742;13.650;2023-04-16T02:55:56;101058.59;;;12.70;100.00
18918;BME280;9591;52.742;13.650;2023-04-16T02:58:42;101056.59;;;12.76;100.00
18918;BME280;9591;52.742;13.650;2023-04-16T03:01:30;101062.84;;;12.51;100.00
18918;BME280;9591;52.742;13.650;2023-04-16T03:04:17;101053.94;;;12.52;100.00
18918;BME280;9591;52.742;13.650;2023-04-16T03:07:04;101062.78;;;12.52;100.00
18918;BME280;9591;52.742;13.650;2023-04-16T03:09:51;101058.53;;;12.46;100.00
18918;BME280;9591;52.742;13.650;2023-04-16T03:12:38;101066.63;;;12.68;100.00
18918;BME280;9591;52.742;13.650;2023-04-16T03:15:25;101066.25;;;12.54;100.00
18918;BME280;9591;52.742;13.650;2023-04-16T03:18:13;101069.97;;;12.48;100.00
18918;BME280;9591;52.742;13.650;2023-04-16T03:21:00;101066.69;;;12.67;100.00
18918;BME280;9591;52.742;13.650;2023-04-16T03:23:46;101074.75;;;12.64;100.00
18918;BME280;9591;52.742;13.650;2023-04-16T03:26:33;101075.38;;;12.72;100.00
18918;BME280;9591;52.742;13.650;2023-04-16T03:29:20;101073.47;;;12.51;100.00
18918;BME280;9591;52.742;13.650;2023-04-16T03:32:07;101075.66;;;12.38;100.00
18918;BME280;9591;52.742;13.650;2023-04-16T03:34:56;101068.59;;;12.63;100.00
18918;BME280;9591;52.742;13.650;2023-04-16T03:37:42;101073.41;;;12.52;100.00
18918;BME280;9591;52.742;13.650;2023-04-16T03:40:30;101068.63;;;12.62;100.00
18918;BME280;9591;52.742;13.650;2023-04-16T03:43:18;101074.75;;;12.64;100.00
18918;BME280;9591;52.742;13.650;2023-04-16T03:46:05;101067.44;;;12.70;100.00
18918;BME280;9591;52.742;13.650;2023-04-16T03:48:52;101079.16;;;12.65;100.00
18918;BME280;9591;52.742;13.650;2023-04-16T03:51:40;101076.50;;;12.65;100.00
18918;BME280;9591;52.742;13.650;2023-04-16T03:54:28;101089.28;;;12.54;100.00
18918;BME280;9591;52.742;13.650;2023-04-16T03:57:25;101088.91;;;12.64;100.00
18918;BME280;9591;52.742;13.650;2023-04-16T04:00:17;101095.47;;;12.54;100.00
18918;BME280;9591;52.742;13.650;2023-04-16T04:03:27;101098.28;;;12.50;100.00
18918;BME280;9591;52.742;13.650;2023-04-16T04:06:14;101094.91;;;12.44;100.00
18918;BME280;9591;52.742;13.650;2023-04-16T04:09:02;101099.81;;;12.57;100.00
18918;BME280;9591;52.742;13.650;2023-04-16T04:11:50;101098.28;;;12.50;100.00
18918;BME280;9591;52.742;13.650;2023-04-16T04:14:36;101100.28;;;12.43;100.00
18918;BME280;9591;52.742;13.650;2023-04-16T04:17:24;101110.84;;;12.44;100.00
18918;BME280;9591;52.742;13.650;2023-04-16T04:20:11;101117.16;;;12.42;100.00
18918;BME280;9591;52.742;13.650;2023-04-16T04:23:01;101111.56;;;12.50;100.00
18918;BME280;9591;52.742;13.650;2023-04-16T04:25:49;101115.34;;;12.42;100.00
18918;BME280;9591;52.742;13.650;2023-04-16T04:28:36;101116.06;;;12.47;100.00
18918;BME280;9591;52.742;13.650;2023-04-16T04:31:23;101123.63;;;12.60;100.00
18918;BME280;9591;52.742;13.650;2023-04-16T04:34:09;101125.63;;;12.53;100.00
18918;BME280;9591;52.742;13.650;2023-04-16T04:36:56;101129.53;;;12.68;100.00
18918;BME280;9591;52.742;13.650;2023-04-16T04:39:44;101129.16;;;12.54;100.00
18918;BME280;9591;52.742;13.650;2023-04-16T04:42:32;101131.81;;;12.54;100.00
18918;BME280;9591;52.742;13.650;2023-04-16T04:45:18;101129.19;;;12.52;100.00
18918;BME280;9591;52.742;13.650;2023-04-16T04:48:05;101134.19;;;12.61;100.00
18918;BME280;9591;52.742;13.650;2023-04-16T04:50:52;101133.63;;;12.52;100.00
18918;BME280;9591;52.742;13.650;2023-04-16T04:53:39;101138.91;;;12.53;100.00
18918;BME280;9591;52.742;13.650;2023-04-16T04:56:26;101136.16;;;12.56;100.00
18918;BME280;9591;52.742;13.650;2023-04-16T04:59:14;101139.16;;;12.45;100.00
18918;BME280;9591;52.742;13.650;2023-04-16T05:02:01;101145.91;;;12.56;100.00
18918;BME280;9591;52.742;13.650;2023-04-16T05:04:48;101145.69;;;12.62;100.00
18918;BME280;9591;52.742;13.650;2023-04-16T05:07:35;101149.47;;;12.55;100.00
18918;BME280;9591;52.742;13.650;2023-04-16T05:10:22;101146.81;;;12.55;100.00
18918;BME280;9591;52.742;13.650;2023-04-16T05:13:08;101159.09;;;12.59;100.00
18918;BME280;9591;52.742;13.650;2023-04-16T05:15:57;101149.47;;;12.55;100.00
18918;BME280;9591;52.742;13.650;2023-04-16T05:18:43;101160.31;;;12.75;100.00
18918;BME280;9591;52.742;13.650;2023-04-16T05:21:31;101166.53;;;12.74;100.00
18918;BME280;9591;52.742;13.650;2023-04-16T05:24:21;101169.84;;;12.80;100.00
18918;BME280;9591;52.742;13.650;2023-04-16T05:27:10;101169.81;;;12.82;100.00
18918;BME280;9591;52.742;13.650;2023-04-16T05:30:00;101180.97;;;12.67;100.00
18918;BME280;9591;52.742;13.650;2023-04-16T05:32:50;101180.03;;;12.68;100.00
18918;BME280;9591;52.742;13.650;2023-04-16T05:35:37;101174.75;;;12.40;100.00
18918;BME280;9591;52.742;13.650;2023-04-16T05:38:23;101175.53;;;12.43;100.00
18918;BME280;9591;52.742;13.650;2023-04-16T05:41:10;101177.72;;;12.57;100.00
18918;BME280;9591;52.742;13.650;2023-04-16T05:43:58;101176.16;;;12.52;100.00
18918;BME280;9591;52.742;13.650;2023-04-16T05:46:49;101180.09;;;12.66;100.00
18918;BME280;9591;52.742;13.650;2023-04-16T05:49:38;101181.06;;;12.64;100.00
18918;BME280;9591;52.742;13.650;2023-04-16T05:52:25;101181.78;;;12.69;100.00
18918;BME280;9591;52.742;13.650;2023-04-16T05:55:11;101182.63;;;12.69;100.00
18918;BME280;9591;52.742;13.650;2023-04-16T05:57:58;101186.94;;;12.73;100.00
18918;BME280;9591;52.742;13.650;2023-04-16T06:00:45;101183.75;;;12.62;100.00
18918;BME280;9591;52.742;13.650;2023-04-16T06:03:34;101185.59;;;12.60;100.00
18918;BME280;9591;52.742;13.650;2023-04-16T06:06:23;101193.22;;;12.71;100.00
18918;BME280;9591;52.742;13.650;2023-04-16T06:09:11;101192.31;;;12.72;100.00
18918;BME280;9591;52.742;13.650;2023-04-16T06:11:58;101192.59;;;12.63;100.00
18918;BME280;9591;52.742;13.650;2023-04-16T06:14:45;101191.59;;;12.67;100.00
18918;BME280;9591;52.742;13.650;2023-04-16T06:17:32;101193.00;;;12.77;100.00
18918;BME280;9591;52.742;13.650;2023-04-16T06:20:18;101197.91;;;12.63;100.00
18918;BME280;9591;52.742;13.650;2023-04-16T06:23:07;101200.28;;;12.72;100.00
18918;BME280;9591;52.742;13.650;2023-04-16T06:25:54;101207.31;;;12.73;100.00
18918;BME280;9591;52.742;13.650;2023-04-16T06:28:40;101211.19;;;12.89;100.00
18918;BME280;9591;52.742;13.650;2023-04-16T06:31:28;101213.19;;;12.83;100.00
18918;BME280;9591;52.742;13.650;2023-04-16T06:34:15;101217.53;;;12.85;100.00
18918;BME280;9591;52.742;13.650;2023-04-16T06:37:02;101220.59;;;12.99;100.00
18918;BME280;9591;52.742;13.650;2023-04-16T06:39:50;101224.25;;;12.97;100.00
18918;BME280;9591;52.742;13.650;2023-04-16T06:42:37;101217.34;;;12.91;100.00
18918;BME280;9591;52.742;13.650;2023-04-16T06:45:24;101220.81;;;12.93;100.00
18918;BME280;9591;52.742;13.650;2023-04-16T06:48:11;101226.94;;;12.95;100.00
18918;BME280;9591;52.742;13.650;2023-04-16T06:50:58;101216.25;;;12.97;100.00
18918;BME280;9591;52.742;13.650;2023-04-16T06:53:45;101224.91;;;13.02;100.00
18918;BME280;9591;52.742;13.650;2023-04-16T06:56:33;101221.94;;;12.86;100.00
18918;BME280;9591;52.742;13.650;2023-04-16T06:59:21;101230.47;;;12.96;100.00
18918;BME280;9591;52.742;13.650;2023-04-16T07:02:09;101235.91;;;12.93;100.00
18918;BME280;9591;52.742;13.650;2023-04-16T07:04:56;101232.41;;;12.91;100.00
18918;BME280;9591;52.742;13.650;2023-04-16T07:07:42;101242.13;;;12.92;100.00
18918;BME280;9591;52.742;13.650;2023-04-16T07:10:30;101241.88;;;12.99;100.00
18918;BME280;9591;52.742;13.650;2023-04-16T07:13:18;101239.78;;;13.07;100.00
18918;BME280;9591;52.742;13.650;2023-04-16T07:16:04;101243.16;;;13.12;100.00
18918;BME280;9591;52.742;13.650;2023-04-16T07:18:51;101240.16;;;13.23;100.00
18918;BME280;9591;52.742;13.650;2023-04-16T07:21:38;101162.06;;;12.50;100.00
18918;BME280;9591;52.742;13.650;2023-04-16T07:24:26;101247.72;;;13.09;100.00
18918;BME280;9591;52.742;13.650;2023-04-16T07:27:13;101249.09;;;12.96;100.00
18918;BME280;9591;52.742;13.650;2023-04-16T07:30:05;101252.97;;;13.10;100.00
18918;BME280;9591;52.742;13.650;2023-04-16T07:32:54;101254.97;;;13.04;100.00
18918;BME280;9591;52.742;13.650;2023-04-16T07:35:40;101253.38;;;13.00;100.00
18918;BME280;9591;52.742;13.650;2023-04-16T07:38:28;101255.53;;;12.89;100.00
18918;BME280;9591;52.742;13.650;2023-04-16T07:41:14;101257.81;;;12.99;100.00
18918;BME280;9591;52.742;13.650;2023-04-16T07:44:02;101257.81;;;12.99;100.00
18918;BME280;9591;52.742;13.650;2023-04-16T07:46:50;101266.91;;;13.19;100.00
18918;BME280;9591;52.742;13.650;2023-04-16T07:49:37;101272.69;;;13.05;100.00
18918;BME280;9591;52.742;13.650;2023-04-16T07:52:23;101265.56;;;13.05;100.00
18918;BME280;9591;52.742;13.650;2023-04-16T07:55:11;101266.59;;;13.01;100.00
18918;BME280;9591;52.742;13.650;2023-04-16T07:57:57;101273.69;;;13.01;100.00
18918;BME280;9591;52.742;13.650;2023-04-16T08:00:44;101275.19;;;13.09;100.00
18918;BME280;9591;52.742;13.650;2023-04-16T08:03:34;101280.94;;;13.24;100.00
18918;BME280;9591;52.742;13.650;2023-04-16T08:06:21;101282.63;;;13.26;100.00
18918;BME280;9591;52.742;13.650;2023-04-16T08:09:08;101280.41;;;13.39;100.00
18918;BME280;9591;52.742;13.650;2023-04-16T08:11:55;101278.88;;;13.57;100.00
18918;BME280;9591;52.742;13.650;2023-04-16T08:14:41;101290.38;;;13.32;100.00
18918;BME280;9591;52.742;13.650;2023-04-16T08:17:30;101294.03;;;13.55;100.00
18918;BME280;9591;52.742;13.650;2023-04-16T08:20:25;101298.66;;;13.50;100.00
18918;BME280;9591;52.742;13.650;2023-04-16T08:23:13;101296.44;;;13.62;100.00
18918;BME280;9591;52.742;13.650;2023-04-16T08:26:00;101302.56;;;13.64;100.00
18918;BME280;9591;52.742;13.650;2023-04-16T08:28:46;101299.09;;;13.62;100.00
18918;BME280;9591;52.742;13.650;2023-04-16T08:31:33;101296.75;;;13.53;100.00
18918;BME280;9591;52.742;13.650;2023-04-16T08:34:20;101301.09;;;13.56;100.00
18918;BME280;9591;52.742;13.650;2023-04-16T08:37:08;101308.84;;;13.37;100.00
18918;BME280;9591;52.742;13.650;2023-04-16T08:39:55;101306.41;;;13.31;100.00
18918;BME280;9591;52.742;13.650;2023-04-16T08:42:44;101316.78;;;13.38;100.00
18918;BME280;9591;52.742;13.650;2023-04-16T08:45:33;101314.78;;;13.19;100.00
18918;BME280;9591;52.742;13.650;2023-04-16T08:48:20;101314.06;;;13.65;100.00
18918;BME280;9591;52.742;13.650;2023-04-16T08:51:09;101315.88;;;13.88;100.00
18918;BME280;9591;52.742;13.650;2023-04-16T08:53:59;101327.22;;;13.69;100.00
18918;BME280;9591;52.742;13.650;2023-04-16T08:56:48;101319.34;;;13.90;100.00
18918;BME280;9591;52.742;13.650;2023-04-16T08:59:37;101314.72;;;13.95;100.00
18918;BME280;9591;52.742;13.650;2023-04-16T09:02:25;101320.81;;;13.98;100.00
18918;BME280;9591;52.742;13.650;2023-04-16T09:05:14;101326.44;;;14.14;100.00
18918;BME280;9591;52.742;13.650;2023-04-16T09:08:03;101333.91;;;14.28;100.00
18918;BME280;9591;52.742;13.650;2023-04-16T09:10:52;101333.81;;;14.31;100.00
18918;BME280;9591;52.742;13.650;2023-04-16T09:13:39;101335.94;;;14.21;100.00
18918;BME280;9591;52.742;13.650;2023-04-16T09:16:26;101345.91;;;14.16;100.00
18918;BME280;9591;52.742;13.650;2023-04-16T09:19:15;101340.03;;;14.06;100.00
18918;BME280;9591;52.742;13.650;2023-04-16T09:22:02;101343.53;;;14.08;100.00
18918;BME280;9591;52.742;13.650;2023-04-16T09:24:49;101341.84;;;14.29;100.00
18918;BME280;9591;52.742;13.650;2023-04-16T09:27:37;101324.88;;;14.08;100.00
18918;BME280;9591;52.742;13.650;2023-04-16T09:30:25;101345.31;;;14.31;100.00
18918;BME280;9591;52.742;13.650;2023-04-16T09:33:14;101304.50;;;14.07;100.00
18918;BME280;9591;52.742;13.650;2023-04-16T09:36:01;101343.56;;;14.55;100.00
18918;BME280;9591;52.742;13.650;2023-04-16T09:38:49;101348.00;;;14.55;100.00
18918;BME280;9591;52.742;13.650;2023-04-16T09:41:36;101351.59;;;14.54;100.00
18918;BME280;9591;52.742;13.650;2023-04-16T09:44:33;101345.69;;;14.69;100.00
18918;BME280;9591;52.742;13.650;2023-04-16T09:47:21;101346.06;;;15.24;100.00
18918;BME280;9591;52.742;13.650;2023-04-16T09:50:10;101354.47;;;15.15;100.00
18918;BME280;9591;52.742;13.650;2023-04-16T09:53:02;101352.97;;;15.07;100.00
18918;BME280;9591;52.742;13.650;2023-04-16T09:55:49;101351.00;;;14.91;100.00
18918;BME280;9591;52.742;13.650;2023-04-16T09:58:36;101354.66;;;14.88;100.00
18918;BME280;9591;52.742;13.650;2023-04-16T10:01:25;101356.56;;;14.85;100.00
18918;BME280;9591;52.742;13.650;2023-04-16T10:04:11;101352.25;;;14.60;100.00
18918;BME280;9591;52.742;13.650;2023-04-16T10:07:02;101355.47;;;14.90;100.00
18918;BME280;9591;52.742;13.650;2023-04-16T10:09:49;101356.06;;;14.75;100.00
18918;BME280;9591;52.742;13.650;2023-04-16T10:12:36;101360.25;;;15.04;100.00
18918;BME280;9591;52.742;13.650;2023-04-16T10:15:24;101359.06;;;14.89;100.00
18918;BME280;9591;52.742;13.650;2023-04-16T10:18:13;101362.81;;;15.27;100.00
18918;BME280;9591;52.742;13.650;2023-04-16T10:21:00;101361.88;;;15.70;100.00
18918;BME280;9591;52.742;13.650;2023-04-16T10:23:47;101376.28;;;15.46;100.00
18918;BME280;9591;52.742;13.650;2023-04-16T10:26:35;101367.13;;;15.52;100.00
18918;BME280;9591;52.742;13.650;2023-04-16T10:29:22;101365.66;;;15.45;100.00
18918;BME280;9591;52.742;13.650;2023-04-16T10:32:10;101363.44;;;15.34;100.00
18918;BME280;9591;52.742;13.650;2023-04-16T10:34:59;101363.34;;;15.15;100.00
18918;BME280;9591;52.742;13.650;2023-04-16T10:37:46;101374.13;;;14.90;100.00
18918;BME280;9591;52.742;13.650;2023-04-16T10:40:34;101379.81;;;14.81;100.00
18918;BME280;9591;52.742;13.650;2023-04-16T10:43:20;101384.28;;;14.59;100.00
18918;BME280;9591;52.742;13.650;2023-04-16T10:46:21;101372.81;;;14.57;100.00
18918;BME280;9591;52.742;13.650;2023-04-16T10:49:12;101381.81;;;14.76;100.00
18918;BME280;9591;52.742;13.650;2023-04-16T10:52:07;101379.28;;;14.73;100.00
18918;BME280;9591;52.742;13.650;2023-04-16T10:54:58;101382.84;;;14.50;100.00
18918;BME280;9591;52.742;13.650;2023-04-16T10:57:48;101387.19;;;14.53;100.00
18918;BME280;9591;52.742;13.650;2023-04-16T11:00:48;101383.06;;;14.67;100.00
18918;BME280;9591;52.742;13.650;2023-04-16T11:03:40;101390.72;;;14.75;100.00
18918;BME280;9591;52.742;13.650;2023-04-16T11:06:29;101393.03;;;14.84;100.00
18918;BME280;9591;52.742;13.650;2023-04-16T11:09:46;101387.19;;;14.74;100.00
18918;BME280;9591;52.742;13.650;2023-04-16T11:12:35;101388.56;;;14.63;100.00
18918;BME280;9591;52.742;13.650;2023-04-16T11:15:22;101404.50;;;14.64;100.00
18918;BME280;9591;52.742;13.650;2023-04-16T11:18:18;101403.88;;;14.58;100.00
18918;BME280;9591;52.742;13.650;2023-04-16T11:21:07;101404.81;;;14.57;100.00
18918;BME280;9591;52.742;13.650;2023-04-16T11:23:56;101410.91;;;14.35;100.00
18918;BME280;9591;52.742;13.650;2023-04-16T11:26:44;101412.09;;;14.27;100.00
18918;BME280;9591;52.742;13.650;2023-04-16T11:29:31;101414.38;;;14.37;100.00
18918;BME280;9591;52.742;13.650;2023-04-16T11:32:20;101421.91;;;14.26;100.00
18918;BME280;9591;52.742;13.650;2023-04-16T11:35:12;101425.53;;;14.24;100.00
18918;BME280;9591;52.742;13.650;2023-04-16T11:38:00;101420.28;;;13.97;100.00
18918;BME280;9591;52.742;13.650;2023-04-16T11:40:48;101423.25;;;14.13;100.00
18918;BME280;9591;52.742;13.650;2023-04-16T11:43:37;101426.84;;;14.12;100.00
18918;BME280;9591;52.742;13.650;2023-04-16T11:46:36;101425.94;;;14.13;100.00
18918;BME280;9591;52.742;13.650;2023-04-16T11:49:27;101427.34;;;14.23;100.00
18918;BME280;9591;52.742;13.650;2023-04-16T11:52:24;101434.41;;;14.24;100.00
18918;BME280;9591;52.742;13.650;2023-04-16T11:55:12;101428.97;;;14.27;100.00
18918;BME280;9591;52.742;13.650;2023-04-16T11:58:10;101438.53;;;14.33;100.00
18918;BME280;9591;52.742;13.650;2023-04-16T12:00:59;101437.78;;;14.29;100.00
18918;BME280;9591;52.742;13.650;2023-04-16T12:03:47;101443.56;;;14.40;100.00
18918;BME280;9591;52.742;13.650;2023-04-16T12:06:34;101442.50;;;14.21;100.00
18918;BME280;9591;52.742;13.650;2023-04-16T12:09:21;101444.41;;;13.93;100.00
18918;BME280;9591;52.742;13.650;2023-04-16T12:12:24;101447.28;;;14.11;100.00
18918;BME280;9591;52.742;13.650;2023-04-16T12:15:12;101452.94;;;14.27;100.00
18918;BME280;9591;52.742;13.650;2023-04-16T12:18:06;101451.09;;;14.29;100.00
18918;BME280;9591;52.742;13.650;2023-04-16T12:20:54;101452.88;;;14.29;100.00
18918;BME280;9591;52.742;13.650;2023-04-16T12:23:40;101450.47;;;14.48;100.00
18918;BME280;9591;52.742;13.650;2023-04-16T12:26:35;101446.81;;;14.50;100.00
18918;BME280;9591;52.742;13.650;2023-04-16T12:29:24;101454.81;;;14.50;100.00
18918;BME280;9591;52.742;13.650;2023-04-16T12:32:20;101446.47;;;14.59;100.00
18918;BME280;9591;52.742;13.650;2023-04-16T12:35:09;101453.19;;;14.69;100.00
18918;BME280;9591;52.742;13.650;2023-04-16T12:37:56;101449.59;;;14.70;100.00
18918;BME280;9591;52.742;13.650;2023-04-16T12:40:43;101449.94;;;14.61;100.00
18918;BME280;9591;52.742;13.650;2023-04-16T12:43:30;101444.75;;;14.80;100.00
18918;BME280;9591;52.742;13.650;2023-04-16T12:46:17;101440.13;;;14.85;100.00
18918;BME280;9591;52.742;13.650;2023-04-16T12:49:04;101447.00;;;14.69;100.00
18918;BME280;9591;52.742;13.650;2023-04-16T12:51:52;101450.72;;;14.87;100.00
18918;BME280;9591;52.742;13.650;2023-04-16T12:54:39;101454.03;;;14.93;100.00
18918;BME280;9591;52.742;13.650;2023-04-16T12:57:26;101450.88;;;15.05;100.00
18918;BME280;9591;52.742;13.650;2023-04-16T13:00:14;101445.09;;;14.94;100.00
18918;BME280;9591;52.742;13.650;2023-04-16T13:03:01;101447.50;;;15.00;100.00
18918;BME280;9591;52.742;13.650;2023-04-16T13:05:48;101450.44;;;14.94;100.00
18918;BME280;9591;52.742;13.650;2023-04-16T13:08:36;101456.56;;;14.96;100.00
18918;BME280;9591;52.742;13.650;2023-04-16T13:11:23;101455.88;;;14.91;100.00
18918;BME280;9591;52.742;13.650;2023-04-16T13:14:10;101452.44;;;15.11;100.00
18918;BME280;9591;52.742;13.650;2023-04-16T13:16:57;101455.78;;;15.16;100.00
18918;BME280;9591;52.742;13.650;2023-04-16T13:19:43;101462.25;;;15.32;100.00
18918;BME280;9591;52.742;13.650;2023-04-16T13:22:30;101454.19;;;15.34;100.00
18918;BME280;9591;52.742;13.650;2023-04-16T13:25:18;101458.84;;;15.29;100.00
18918;BME280;9591;52.742;13.650;2023-04-16T13:28:05;101462.50;;;15.26;100.00
18918;BME280;9591;52.742;13.650;2023-04-16T13:30:52;101465.94;;;15.06;100.00
18918;BME280;9591;52.742;13.650;2023-04-16T13:33:40;101467.19;;;14.74;100.00
18918;BME280;9591;52.742;13.650;2023-04-16T13:36:26;101467.94;;;14.78;100.00
18918;BME280;9591;52.742;13.650;2023-04-16T13:39:14;101467.44;;;14.68;100.00
18918;BME280;9591;52.742;13.650;2023-04-16T13:42:02;101471.56;;;14.54;100.00
18918;BME280;9591;52.742;13.650;2023-04-16T13:44:49;101473.94;;;14.61;100.00
18918;BME280;9591;52.742;13.650;2023-04-16T13:47:39;101470.38;;;14.36;100.00
18918;BME280;9591;52.742;13.650;2023-04-16T13:50:26;101473.63;;;14.46;100.00
18918;BME280;9591;52.742;13.650;2023-04-16T13:53:13;101474.47;;;14.21;100.00
18918;BME280;9591;52.742;13.650;2023-04-16T13:56:00;101475.00;;;14.06;100.00
18918;BME280;9591;52.742;13.650;2023-04-16T13:58:49;101474.94;;;14.07;100.00
18918;BME280;9591;52.742;13.650;2023-04-16T14:01:36;101478.88;;;14.22;100.00
18918;BME280;9591;52.742;13.650;2023-04-16T14:04:23;101479.84;;;13.95;100.00
18918;BME280;9591;52.742;13.650;2023-04-16T14:07:10;101483.53;;;13.91;100.00
18918;BME280;9591;52.742;13.650;2023-04-16T14:09:57;101477.78;;;14.03;100.00
18918;BME280;9591;52.742;13.650;2023-04-16T14:12:44;101479.34;;;14.08;100.00
18918;BME280;9591;52.742;13.650;2023-04-16T14:15:32;101472.56;;;14.00;100.00
18918;BME280;9591;52.742;13.650;2023-04-16T14:18:19;101476.31;;;13.94;100.00
18918;BME280;9591;52.742;13.650;2023-04-16T14:21:05;101477.06;;;13.98;100.00
18918;BME280;9591;52.742;13.650;2023-04-16T14:23:52;101477.34;;;14.15;100.00
18918;BME280;9591;52.742;13.650;2023-04-16T14:26:41;101468.00;;;14.03;100.00
18918;BME280;9591;52.742;13.650;2023-04-16T14:29:29;101472.91;;;14.16;100.00